Terminal Aerodrome Forecast
Issued by NWS

Home | Current Version | Previous Version | Text Only | Print | Product List | Glossary On
Versions: 1 2 3 4 5 6 7 8 9 10 11 12
000
FTUS41 KBOX 250531
TAFBAF
TAF
KBAF 250531Z 2506/2606 34004KT P6SM SKC
     FM251700 24004KT P6SM SCT120
     FM252100 20008KT P6SM BKN110
     FM260400 16005KT P6SM -RA OVC080=

USA.gov is the U.S. government's official web portal to all federal, state and local government web resources and services.